Detall de PIREP

Printer-friendly versionPDF version

[2011/06/11 20:43:00]
Flight IATA:CT3232
Pilot Number:037
Company ICAO:CAT
Aircraft Type:B763/F
PAX:253
Departing Airport: LEPA
Destination Airport: LEMD
Alternate Airport:LEMG
Online: VATSIM
Route:TURIA UN733 PRADO
Flight Level:F280
No Slew and time accel
No pause
Crash detect
Detect pilot in Cockpit between each 30 and 45 minutes
20:43 Zero fuel Weight: 280116 Lbs, Fuel Weight: 36600 Lbs
20:43 VATSIM:LEPA 112030Z 16002KT 9999 FEW025 20/15 Q1020 NOSIG
20:43 VATSIM:LEMD 112030Z 01003KT CAVOK 21/07 Q1019 NOSIG
20:57 Parking Brakes off
21:05 Take-off
21:05 Take off Weight: 314990 Lbs
21:05 Wind: 162º @ 002 Knots Heading: 238º
21:05 POS N39º 33´ 16´´ E002º 43´ 34´´
21:05 Flaps:3 at 171 Knots
21:05 Gear Up: 174 Knots
21:05 Flaps:2 at 191 Knots
21:05 Flaps:1 at 200 Knots
21:06 Flaps:0 at 222 Knots
21:17 TOC
21:17 Fuel Weight: 29611 Lb
21:20 Wind:113º@008 Knots Heading: 270º Ground Speed: 506 Knots Altitude 28195 ft
21:33 TOD
21:33 Fuel Weight: 25874 Lb
21:35 Wind:112º@005 Knots Heading: 298º Ground Speed: 453 Knots Altitude 26784 ft
21:46 Flaps:1 at 216 Knots
21:49 Gear Down: 207 Knots
21:49 Flaps:2 at 207 Knots
21:50 Wind:024º@001 Knots Heading: 356º Ground Speed: 200 Knots Altitude 3979 ft
21:50 Flaps:3 at 184 Knots
21:51 Flaps:4 at 186 Knots
21:51 Flaps:5 at 194 Knots
21:51 Flaps:6 at 182 Knots
21:52 Flaps:5 at 184 Knots
21:52 Flaps:6 at 184 Knots
21:52 Flaps:5 at 183 Knots
21:52 Flaps:6 at 182 Knots
21:53 Flaps:5 at 176 Knots
21:53 Gear Up: 171 Knots
21:53 Flaps:4 at 144 Knots
21:54 Flaps:3 at 192 Knots
21:54 Flaps:2 at 213 Knots
21:55 Flaps:1 at 192 Knots
21:59 Flaps:2 at 226 Knots
21:59 Flaps:3 at 219 Knots
22:00 Flaps:4 at 189 Knots
22:00 Flaps:5 at 194 Knots
22:00 Flaps:6 at 196 Knots
22:00 TouchDown:Rate -380 ft/min Speed: 169 Knots
22:00 Gear Down: 168 Knots
22:01 VATSIM:LEMD 112130Z VRB01KT CAVOK 22/06 Q1019 NOSIG
22:01 Land
22:01 Wind:024º@005 Knots
22:01 Heading: 359º
22:01 Flight Duration: 00:56
22:01 Landing Weight: 301115 Lbs
22:01 POS N40º 28´ 59´´ W003º 33´ 45´´
22:06 Parking brakes on
22:06 Block to Block Duration: 01:09
22:06 Final Fuel: 20006 Lbls
22:06 Spent Fuel: 16593 Lbls
22:06 Flight Length: 234 NM
22:06 TOD Land Length: 138 NM

Exportar CSV

Powered by Drupal - Modified by Danger4k